createdAt,value
2022-08-23T00:01:21.266Z,20.40
2022-08-23T00:03:53.332Z,20.40
2022-08-23T00:06:22.706Z,20.40
2022-08-23T00:08:51.950Z,20.40
2022-08-23T00:11:31.181Z,20.40
2022-08-23T00:14:00.798Z,20.50
2022-08-23T00:16:29.679Z,20.50
2022-08-23T00:18:57.602Z,20.50
2022-08-23T00:21:25.508Z,20.50
2022-08-23T00:23:53.573Z,20.50
2022-08-23T00:26:21.621Z,20.50
2022-08-23T00:28:51.045Z,20.50
2022-08-23T00:31:20.132Z,20.50
2022-08-23T00:33:48.062Z,20.50
2022-08-23T00:36:15.933Z,20.50
2022-08-23T00:38:43.906Z,20.50
2022-08-23T00:41:11.721Z,20.50
2022-08-23T00:44:00.418Z,20.40
2022-08-23T00:46:58.189Z,20.40
2022-08-23T00:49:27.662Z,20.30
2022-08-23T00:52:00.924Z,20.20
2022-08-23T00:54:31.130Z,20.20
2022-08-23T00:57:02.478Z,20.20
2022-08-23T00:59:30.343Z,20.10
2022-08-23T01:02:00.414Z,20.00
2022-08-23T01:04:31.783Z,20.10
2022-08-23T01:07:08.385Z,20.10
2022-08-23T01:09:39.083Z,20.10
2022-08-23T01:12:10.482Z,20.10
2022-08-23T01:14:42.550Z,20.10
2022-08-23T01:17:16.200Z,20.10
2022-08-23T01:19:49.589Z,20.10
2022-08-23T01:22:22.746Z,20.10
2022-08-23T01:25:08.316Z,20.10
2022-08-23T01:27:37.180Z,20.10
2022-08-23T01:30:07.086Z,20.10
2022-08-23T01:32:42.472Z,20.10
2022-08-23T01:35:11.348Z,20.10
2022-08-23T01:37:39.484Z,20.00
2022-08-23T01:40:10.014Z,20.10
2022-08-23T01:42:41.713Z,20.10
2022-08-23T01:45:12.162Z,20.10
2022-08-23T01:47:41.170Z,20.10
2022-08-23T01:50:12.915Z,20.10
2022-08-23T01:52:46.972Z,20.10
2022-08-23T01:55:17.133Z,20.10
2022-08-23T01:57:48.217Z,20.00
2022-08-23T02:00:17.238Z,20.00
2022-08-23T02:02:47.043Z,20.00
2022-08-23T02:05:18.903Z,20.00
2022-08-23T02:07:47.272Z,20.00
2022-08-23T02:10:17.530Z,20.00
2022-08-23T02:12:46.602Z,20.10
2022-08-23T02:15:15.516Z,20.10
2022-08-23T02:17:44.425Z,20.10
2022-08-23T02:20:14.142Z,20.10
2022-08-23T02:22:43.390Z,20.10
2022-08-23T02:25:11.488Z,20.10
2022-08-23T02:27:44.184Z,20.00
2022-08-23T02:30:13.305Z,20.00
2022-08-23T02:32:42.228Z,20.00
2022-08-23T02:35:10.749Z,20.00
2022-08-23T02:37:39.028Z,20.00
2022-08-23T02:40:07.885Z,20.10
2022-08-23T02:42:35.787Z,20.00
2022-08-23T02:45:08.294Z,20.10
2022-08-23T02:47:37.258Z,20.10
2022-08-23T02:50:05.278Z,20.10
2022-08-23T02:52:33.253Z,20.10
2022-08-23T02:55:01.114Z,20.20
2022-08-23T02:57:30.940Z,20.20
2022-08-23T02:59:59.753Z,20.20
2022-08-23T03:02:29.331Z,20.20
2022-08-23T03:04:57.389Z,20.20
2022-08-23T03:07:25.202Z,20.20
2022-08-23T03:09:53.045Z,20.20
2022-08-23T03:12:21.119Z,20.20
2022-08-23T03:14:51.305Z,20.20
2022-08-23T03:17:21.045Z,20.30
2022-08-23T03:19:52.282Z,20.30
2022-08-23T03:22:20.596Z,20.30
2022-08-23T03:24:48.567Z,20.30
2022-08-23T03:27:16.600Z,20.30
2022-08-23T03:29:44.442Z,20.20
2022-08-23T03:32:12.380Z,20.30
2022-08-23T03:34:43.569Z,20.20
2022-08-23T03:37:12.704Z,20.30
2022-08-23T03:39:40.626Z,20.30
2022-08-23T03:42:09.125Z,20.30
2022-08-23T03:44:36.940Z,20.30
2022-08-23T03:47:05.919Z,20.30
2022-08-23T03:49:33.886Z,20.30
2022-08-23T03:52:02.166Z,20.30
2022-08-23T03:54:31.735Z,20.30
2022-08-23T03:57:02.695Z,20.20
2022-08-23T03:59:32.558Z,20.30
2022-08-23T04:02:00.782Z,20.30
2022-08-23T04:04:29.050Z,20.30
2022-08-23T04:06:57.244Z,20.30
2022-08-23T04:09:25.207Z,20.20
2022-08-23T04:11:54.470Z,20.30
2022-08-23T04:14:22.472Z,20.20
2022-08-23T04:16:50.641Z,20.30
2022-08-23T04:19:18.594Z,20.20
2022-08-23T04:21:49.509Z,20.20
2022-08-23T04:24:18.912Z,20.20
2022-08-23T04:26:49.442Z,20.20
2022-08-23T04:29:22.930Z,20.20
2022-08-23T04:32:02.807Z,20.20
2022-08-23T04:34:34.303Z,20.20
2022-08-23T04:37:02.437Z,20.20
2022-08-23T04:39:51.645Z,20.20
2022-08-23T04:42:23.093Z,20.20
2022-08-23T04:44:52.761Z,20.10
2022-08-23T04:47:21.310Z,20.10
2022-08-23T04:49:49.455Z,20.10
2022-08-23T04:52:19.369Z,20.10
2022-08-23T04:54:47.728Z,20.10
2022-08-23T04:57:16.420Z,20.10
2022-08-23T04:59:44.273Z,20.10
2022-08-23T05:02:14.435Z,20.10
2022-08-23T05:04:42.427Z,20.10
2022-08-23T05:07:10.775Z,20.10
2022-08-23T05:09:38.592Z,20.10
2022-08-23T05:12:06.717Z,20.10
2022-08-23T05:14:34.886Z,20.10
2022-08-23T05:17:03.052Z,20.20
2022-08-23T05:19:33.236Z,20.20
2022-08-23T05:22:02.429Z,20.20
2022-08-23T05:24:30.457Z,20.20
2022-08-23T05:26:58.390Z,20.20
2022-08-23T05:29:26.166Z,20.30
2022-08-23T05:31:55.492Z,20.30
2022-08-23T05:34:23.516Z,20.30
2022-08-23T05:36:55.345Z,20.30
2022-08-23T05:39:32.822Z,20.30
2022-08-23T05:42:04.823Z,20.30
2022-08-23T05:44:36.744Z,20.30
2022-08-23T05:47:11.090Z,20.30
2022-08-23T05:49:40.481Z,20.40
2022-08-23T05:52:11.979Z,20.40
2022-08-23T05:54:40.400Z,20.40
2022-08-23T05:57:08.663Z,20.40
2022-08-23T05:59:36.534Z,20.40
2022-08-23T06:02:04.631Z,20.50
2022-08-23T06:04:32.961Z,20.50
2022-08-23T06:07:00.849Z,20.40
2022-08-23T06:09:30.098Z,20.40
2022-08-23T06:11:58.667Z,20.50
2022-08-23T06:14:26.745Z,20.50
2022-08-23T06:16:56.270Z,20.50
2022-08-23T06:19:24.942Z,20.60
2022-08-23T06:21:53.750Z,20.80
2022-08-23T06:24:23.231Z,21.40
2022-08-23T06:26:52.408Z,22.70
2022-08-23T06:29:21.657Z,24.30
2022-08-23T06:31:52.655Z,25.80
2022-08-23T06:34:22.955Z,27.10
2022-08-23T06:36:53.926Z,28.30
2022-08-23T06:39:23.216Z,29.10
2022-08-23T06:41:52.931Z,29.70
2022-08-23T06:44:21.782Z,30.20
2022-08-23T06:46:49.735Z,30.60
2022-08-23T06:49:18.317Z,30.80
2022-08-23T06:51:49.520Z,30.80
2022-08-23T06:54:21.935Z,30.50
2022-08-23T06:56:50.846Z,30.30
2022-08-23T06:59:21.193Z,30.10
2022-08-23T07:01:53.525Z,29.80
2022-08-23T07:04:24.300Z,29.70
2022-08-23T07:06:52.438Z,29.50
2022-08-23T07:09:20.562Z,29.40
2022-08-23T07:11:48.738Z,29.20
2022-08-23T07:14:18.453Z,29.10
2022-08-23T07:16:50.987Z,29.10
2022-08-23T07:19:21.110Z,28.90
2022-08-23T07:21:49.795Z,28.60
2022-08-23T07:24:17.772Z,28.40
2022-08-23T07:26:47.562Z,28.40
2022-08-23T07:29:16.766Z,28.60
2022-08-23T07:31:47.598Z,29.10
2022-08-23T07:34:15.731Z,29.70
2022-08-23T07:36:45.624Z,30.30
2022-08-23T07:39:14.262Z,30.60
2022-08-23T07:41:42.414Z,31.10
2022-08-23T07:44:11.595Z,31.80
2022-08-23T07:46:42.552Z,32.30
2022-08-23T07:49:13.344Z,32.80
2022-08-23T07:51:42.659Z,33.30
2022-08-23T07:54:11.624Z,33.60
2022-08-23T07:56:39.697Z,33.70
2022-08-23T07:59:08.347Z,33.70
2022-08-23T08:01:37.543Z,34.00
2022-08-23T08:04:06.995Z,34.20
2022-08-23T08:06:39.939Z,34.30
2022-08-23T08:09:08.583Z,34.20
2022-08-23T08:11:37.662Z,33.70
2022-08-23T08:14:08.251Z,33.60
2022-08-23T08:16:38.454Z,33.50
2022-08-23T08:19:09.534Z,33.30
2022-08-23T08:21:42.170Z,32.90
2022-08-23T08:24:12.911Z,32.60
2022-08-23T08:26:41.429Z,32.30
2022-08-23T08:29:11.082Z,32.00
2022-08-23T08:31:39.820Z,31.40
2022-08-23T08:34:08.575Z,30.80
2022-08-23T08:36:39.717Z,30.40
2022-08-23T08:39:10.498Z,30.10
2022-08-23T08:41:48.470Z,29.60
2022-08-23T08:44:33.003Z,29.40
2022-08-23T08:47:00.858Z,29.00
2022-08-23T08:49:38.430Z,28.60
2022-08-23T08:52:16.767Z,28.40
2022-08-23T08:54:48.275Z,28.20
2022-08-23T08:57:22.641Z,28.10
2022-08-23T09:00:00.951Z,28.10
2022-08-23T09:02:34.129Z,28.10
2022-08-23T09:05:07.007Z,28.10
2022-08-23T09:07:47.652Z,28.10
2022-08-23T09:10:45.696Z,28.10
2022-08-23T09:13:46.369Z,28.10
2022-08-23T09:16:25.973Z,28.10
2022-08-23T09:18:54.608Z,28.10
2022-08-23T09:21:22.901Z,28.10
2022-08-23T09:24:01.115Z,28.20
2022-08-23T09:26:31.392Z,28.30
2022-08-23T09:29:03.005Z,28.40
2022-08-23T09:31:38.299Z,28.40
2022-08-23T09:34:07.373Z,28.50
2022-08-23T09:36:38.304Z,28.60
2022-08-23T09:39:24.125Z,28.60
2022-08-23T09:42:00.732Z,28.60
2022-08-23T09:44:36.653Z,28.70
2022-08-23T09:47:11.082Z,28.80
2022-08-23T09:49:40.619Z,28.90
2022-08-23T09:52:22.234Z,28.90
2022-08-23T09:55:03.348Z,29.00
2022-08-23T09:57:33.605Z,29.00
2022-08-23T10:00:03.378Z,29.10
2022-08-23T10:02:34.649Z,29.10
2022-08-23T10:05:05.787Z,29.20
2022-08-23T10:07:40.329Z,29.30
2022-08-23T10:10:24.534Z,29.30
2022-08-23T10:12:54.250Z,29.40
2022-08-23T10:15:45.635Z,29.50
2022-08-23T10:18:25.485Z,29.50
2022-08-23T10:21:02.993Z,29.60
2022-08-23T10:23:42.846Z,29.70
2022-08-23T10:26:21.722Z,29.60
2022-08-23T10:29:13.699Z,29.70
2022-08-23T10:31:51.826Z,29.70
2022-08-23T10:34:38.176Z,29.70
2022-08-23T10:37:24.393Z,29.70
2022-08-23T10:40:03.695Z,29.70
2022-08-23T10:42:41.258Z,29.70
2022-08-23T10:45:17.960Z,29.70
2022-08-23T10:47:58.806Z,29.50
2022-08-23T10:50:28.712Z,29.40
2022-08-23T10:53:03.168Z,29.20
2022-08-23T10:55:44.261Z,29.10
2022-08-23T10:58:19.878Z,29.10
2022-08-23T11:00:48.260Z,29.00
2022-08-23T11:03:28.885Z,28.90
2022-08-23T11:06:26.380Z,28.80
2022-08-23T11:09:03.025Z,28.70
2022-08-23T11:11:40.048Z,28.60
2022-08-23T11:14:10.722Z,28.60
2022-08-23T11:16:43.210Z,28.60
2022-08-23T11:19:15.629Z,28.60
2022-08-23T11:21:49.625Z,28.60
2022-08-23T11:24:50.246Z,28.50
2022-08-23T11:27:31.126Z,28.60
2022-08-23T11:30:38.790Z,28.60
2022-08-23T11:33:17.496Z,28.60
2022-08-23T11:35:48.491Z,28.70
2022-08-23T11:38:22.618Z,28.80
2022-08-23T11:41:23.586Z,28.90
2022-08-23T11:44:23.365Z,28.90
2022-08-23T11:47:01.827Z,28.90
2022-08-23T11:49:52.979Z,28.80
2022-08-23T11:52:35.967Z,28.80
2022-08-23T11:55:24.878Z,28.80
2022-08-23T11:58:06.589Z,28.80
2022-08-23T12:01:06.086Z,28.90
2022-08-23T12:03:37.593Z,28.90
2022-08-23T12:06:12.613Z,28.80
2022-08-23T12:08:55.379Z,28.80
2022-08-23T12:11:25.853Z,28.90
2022-08-23T12:14:02.658Z,29.00
2022-08-23T12:16:44.257Z,29.10
2022-08-23T12:19:30.322Z,29.10
2022-08-23T12:22:03.101Z,29.20
2022-08-23T12:24:35.567Z,29.20
2022-08-23T12:27:12.819Z,29.30
2022-08-23T12:29:56.697Z,29.30
2022-08-23T12:32:33.949Z,29.50
2022-08-23T12:35:21.274Z,29.50
2022-08-23T12:37:55.894Z,29.50
2022-08-23T12:40:28.865Z,29.40
2022-08-23T12:43:05.505Z,29.40
2022-08-23T12:45:41.611Z,29.40
2022-08-23T12:48:15.223Z,29.40
2022-08-23T12:50:45.347Z,29.40
2022-08-23T12:53:15.582Z,29.40
2022-08-23T12:55:47.083Z,29.40
2022-08-23T12:58:16.172Z,29.30
2022-08-23T13:00:53.314Z,29.30
2022-08-23T13:03:28.010Z,29.30
2022-08-23T13:06:01.973Z,29.30
2022-08-23T13:08:35.544Z,29.40
2022-08-23T13:11:07.820Z,29.40
2022-08-23T13:13:39.183Z,29.60
2022-08-23T13:16:27.286Z,29.70
2022-08-23T13:19:11.030Z,29.80
2022-08-23T13:21:39.903Z,29.80
2022-08-23T13:24:38.440Z,29.80
2022-08-23T13:27:22.557Z,29.80
2022-08-23T13:29:51.935Z,29.70
2022-08-23T13:32:29.632Z,29.70
2022-08-23T13:35:30.415Z,29.50
2022-08-23T13:38:01.335Z,29.50
2022-08-23T13:40:33.279Z,29.50
2022-08-23T13:43:04.939Z,29.50
2022-08-23T13:45:45.863Z,29.50
2022-08-23T13:48:17.851Z,29.50
2022-08-23T13:50:47.391Z,29.50
2022-08-23T13:53:17.656Z,29.30
2022-08-23T13:55:48.889Z,29.20
2022-08-23T13:58:25.968Z,29.10
2022-08-23T14:00:55.342Z,29.00
2022-08-23T14:03:24.159Z,28.90
2022-08-23T14:05:53.766Z,28.70
2022-08-23T14:08:22.282Z,28.80
2022-08-23T14:10:51.171Z,28.60
2022-08-23T14:13:20.655Z,28.40
2022-08-23T14:15:58.848Z,28.30
2022-08-23T14:18:37.160Z,28.50
2022-08-23T14:21:06.591Z,28.50
2022-08-23T14:23:34.361Z,28.70
2022-08-23T14:26:02.458Z,28.80
2022-08-23T14:28:31.262Z,28.90
2022-08-23T14:30:59.171Z,29.00
2022-08-23T14:33:27.179Z,29.00
2022-08-23T14:35:56.141Z,29.10
2022-08-23T14:38:25.551Z,29.10
2022-08-23T14:40:57.707Z,29.10
2022-08-23T14:43:26.946Z,29.10
2022-08-23T14:45:55.484Z,29.10
2022-08-23T14:48:25.169Z,29.10
2022-08-23T14:50:53.785Z,29.00
2022-08-23T14:53:27.569Z,29.10
2022-08-23T14:56:18.722Z,29.10
2022-08-23T14:58:44.522Z,29.10
2022-08-23T15:01:13.543Z,29.20
2022-08-23T15:03:42.148Z,29.20
2022-08-23T15:06:10.393Z,29.20
2022-08-23T15:08:43.317Z,29.30
2022-08-23T15:14:03.414Z,29.30
2022-08-23T15:16:31.545Z,29.20
2022-08-23T15:18:59.989Z,29.30
2022-08-23T15:21:27.993Z,29.40
2022-08-23T15:23:57.276Z,29.40
2022-08-23T15:26:29.545Z,29.40
2022-08-23T15:28:57.683Z,29.30
2022-08-23T15:31:26.169Z,29.30
2022-08-23T15:33:54.008Z,29.10
2022-08-23T15:36:22.711Z,29.00
2022-08-23T15:38:51.806Z,29.00
2022-08-23T15:41:21.977Z,28.80
2022-08-23T15:43:49.820Z,28.80
2022-08-23T15:46:21.420Z,28.70
2022-08-23T15:48:53.994Z,28.80
2022-08-23T15:51:22.038Z,28.70
2022-08-23T15:53:49.976Z,28.60
2022-08-23T15:56:23.385Z,28.60
2022-08-23T15:58:53.519Z,28.50
2022-08-23T16:01:24.702Z,28.40
2022-08-23T16:03:54.671Z,28.40
2022-08-23T16:06:23.340Z,28.30
2022-08-23T16:08:53.693Z,28.10
2022-08-23T16:11:24.283Z,27.90
2022-08-23T16:13:55.221Z,27.70
2022-08-23T16:16:27.139Z,27.50
2022-08-23T16:18:57.810Z,27.40
2022-08-23T16:21:29.684Z,27.20
2022-08-23T16:23:59.056Z,27.20
2022-08-23T16:26:34.562Z,27.10
2022-08-23T16:29:03.541Z,27.10
2022-08-23T16:31:37.627Z,27.20
2022-08-23T16:34:08.945Z,27.10
2022-08-23T16:36:37.126Z,27.00
2022-08-23T16:39:05.738Z,27.10
2022-08-23T16:41:34.937Z,27.20
2022-08-23T16:44:02.834Z,27.20
2022-08-23T16:46:30.858Z,27.20
2022-08-23T16:48:59.054Z,27.20
2022-08-23T16:51:27.320Z,27.20
2022-08-23T16:54:02.503Z,27.10
2022-08-23T16:56:31.072Z,27.10
2022-08-23T16:59:00.472Z,27.00
2022-08-23T17:01:29.208Z,27.00
2022-08-23T17:03:57.611Z,27.00
2022-08-23T17:06:25.694Z,27.00
2022-08-23T17:08:53.486Z,26.90
2022-08-23T17:11:23.792Z,26.90
2022-08-23T17:13:57.871Z,26.90
2022-08-23T17:16:35.177Z,26.80
2022-08-23T17:19:03.140Z,26.60
2022-08-23T17:21:31.108Z,26.70
2022-08-23T17:23:59.372Z,26.70
2022-08-23T17:26:27.477Z,26.70
2022-08-23T17:28:56.368Z,26.70
2022-08-23T17:31:24.317Z,26.90
2022-08-23T17:33:53.746Z,26.80
2022-08-23T17:36:33.484Z,26.70
2022-08-23T17:39:01.930Z,26.60
2022-08-23T17:41:29.857Z,26.60
2022-08-23T17:44:03.404Z,26.50
2022-08-23T17:46:31.233Z,26.50
2022-08-23T17:49:00.360Z,26.50
2022-08-23T17:51:28.728Z,26.50
2022-08-23T17:53:56.669Z,26.50
2022-08-23T17:56:26.943Z,26.40
2022-08-23T17:58:55.213Z,26.30
2022-08-23T18:01:23.138Z,26.20
2022-08-23T18:03:51.333Z,26.10
2022-08-23T18:06:21.185Z,26.10
2022-08-23T18:08:49.458Z,26.10
2022-08-23T18:11:17.487Z,26.00
2022-08-23T18:13:45.664Z,26.00
2022-08-23T18:16:13.844Z,25.90
2022-08-23T18:18:41.728Z,25.80
2022-08-23T18:21:12.612Z,25.70
2022-08-23T18:23:42.494Z,25.70
2022-08-23T18:26:32.715Z,25.70
2022-08-23T18:29:02.528Z,25.60
2022-08-23T18:31:31.200Z,25.50
2022-08-23T18:34:00.675Z,25.50
2022-08-23T18:36:29.823Z,25.50
2022-08-23T18:38:59.018Z,25.50
2022-08-23T18:41:27.112Z,25.30
2022-08-23T18:43:55.066Z,25.30
2022-08-23T18:46:23.221Z,25.30
2022-08-23T18:48:53.784Z,25.20
2022-08-23T18:51:23.168Z,25.20
2022-08-23T18:53:51.301Z,25.10
2022-08-23T18:56:21.219Z,25.00
2022-08-23T18:58:49.527Z,25.00
2022-08-23T19:01:22.338Z,25.00
2022-08-23T19:03:50.926Z,25.00
2022-08-23T19:06:19.812Z,24.90
2022-08-23T19:08:48.735Z,24.90
2022-08-23T19:11:17.179Z,24.90
2022-08-23T19:13:46.706Z,24.90
2022-08-23T19:16:16.549Z,24.80
2022-08-23T19:18:46.552Z,24.80
2022-08-23T19:21:16.231Z,24.70
2022-08-23T19:23:46.613Z,24.70
2022-08-23T19:26:16.303Z,24.70
2022-08-23T19:28:45.764Z,24.70
2022-08-23T19:31:14.342Z,24.60
2022-08-23T19:33:42.760Z,24.60
2022-08-23T19:36:29.207Z,24.60
2022-08-23T19:38:57.744Z,24.60
2022-08-23T19:41:25.573Z,24.40
2022-08-23T19:43:55.467Z,24.40
2022-08-23T19:46:23.907Z,24.30
2022-08-23T19:48:54.027Z,24.20
2022-08-23T19:51:22.121Z,24.20
2022-08-23T19:56:48.647Z,24.10
2022-08-23T19:59:20.259Z,24.10
2022-08-23T20:01:49.641Z,24.10
2022-08-23T20:04:17.772Z,24.10
2022-08-23T20:06:45.884Z,24.10
2022-08-23T20:09:14.037Z,24.10
2022-08-23T20:11:42.562Z,24.00
2022-08-23T20:14:12.415Z,24.00
2022-08-23T20:16:41.067Z,23.90
2022-08-23T20:19:10.539Z,23.90
2022-08-23T20:21:39.245Z,23.90
2022-08-23T20:24:06.900Z,23.90
2022-08-23T20:26:40.617Z,23.90
2022-08-23T20:29:12.279Z,23.80
2022-08-23T20:31:50.064Z,23.70
2022-08-23T20:34:18.772Z,23.70
2022-08-23T20:36:48.799Z,23.60
2022-08-23T20:39:20.439Z,23.60
2022-08-23T20:41:52.263Z,23.50
2022-08-23T20:44:22.303Z,23.50
2022-08-23T20:46:53.968Z,23.50
2022-08-23T20:49:24.477Z,23.40
2022-08-23T20:51:53.343Z,23.50
2022-08-23T20:54:21.599Z,23.40
2022-08-23T20:56:52.922Z,23.40
2022-08-23T20:59:25.876Z,23.40
2022-08-23T21:01:53.956Z,23.40
2022-08-23T21:04:22.282Z,23.30
2022-08-23T21:06:58.221Z,23.30
2022-08-23T21:09:29.113Z,23.30
2022-08-23T21:11:58.111Z,23.30
2022-08-23T21:14:27.481Z,23.20
2022-08-23T21:16:55.421Z,23.20
2022-08-23T21:19:23.304Z,23.20
2022-08-23T21:21:51.638Z,23.10
2022-08-23T21:24:19.843Z,23.10
2022-08-23T21:26:47.866Z,23.10
2022-08-23T21:29:16.166Z,23.10
2022-08-23T21:31:45.722Z,23.10
2022-08-23T21:34:17.524Z,23.10
2022-08-23T21:36:45.570Z,23.10
2022-08-23T21:39:13.779Z,23.00
2022-08-23T21:41:43.688Z,23.00
2022-08-23T21:44:14.011Z,23.00
2022-08-23T21:46:42.490Z,23.00
2022-08-23T21:49:12.807Z,22.90
2022-08-23T21:51:41.604Z,22.90
2022-08-23T21:54:11.623Z,22.90
2022-08-23T21:56:40.748Z,22.80
2022-08-23T21:59:10.542Z,22.80
2022-08-23T22:01:39.096Z,22.80
2022-08-23T22:04:08.991Z,22.70
2022-08-23T22:06:39.850Z,22.70
2022-08-23T22:09:10.604Z,22.60
2022-08-23T22:11:41.323Z,22.60
2022-08-23T22:14:11.746Z,22.60
2022-08-23T22:16:40.992Z,22.60
2022-08-23T22:19:08.927Z,22.60
2022-08-23T22:21:38.448Z,22.60
2022-08-23T22:24:07.164Z,22.60
2022-08-23T22:26:35.542Z,22.50
2022-08-23T22:29:04.309Z,22.50
2022-08-23T22:31:32.672Z,22.50
2022-08-23T22:34:01.237Z,22.50
2022-08-23T22:36:30.047Z,22.40
2022-08-23T22:38:59.567Z,22.50
2022-08-23T22:41:29.304Z,22.50
2022-08-23T22:43:59.232Z,22.40
2022-08-23T22:46:29.715Z,22.40
2022-08-23T22:48:58.360Z,22.40
2022-08-23T22:51:28.057Z,22.40
2022-08-23T22:53:59.892Z,22.30
2022-08-23T22:56:30.517Z,22.30
2022-08-23T22:58:59.612Z,22.30
2022-08-23T23:01:30.691Z,22.20
2022-08-23T23:04:00.739Z,22.20
2022-08-23T23:06:29.861Z,22.20
2022-08-23T23:08:59.397Z,22.10
2022-08-23T23:11:29.393Z,22.10
2022-08-23T23:13:58.434Z,22.10
2022-08-23T23:16:30.353Z,22.10
2022-08-23T23:19:16.658Z,22.10
2022-08-23T23:21:47.793Z,22.00
2022-08-23T23:24:19.841Z,22.10
2022-08-23T23:26:48.570Z,22.10
2022-08-23T23:29:17.013Z,22.10
2022-08-23T23:31:45.397Z,22.00
2022-08-23T23:34:13.917Z,22.00
2022-08-23T23:36:42.082Z,21.90
2022-08-23T23:39:11.957Z,21.90
2022-08-23T23:41:41.782Z,21.90
2022-08-23T23:44:10.116Z,21.90
2022-08-23T23:46:38.084Z,21.90
2022-08-23T23:49:06.514Z,21.90
2022-08-23T23:51:34.983Z,21.90
2022-08-23T23:54:03.365Z,21.90
2022-08-23T23:56:35.891Z,21.90
2022-08-23T23:59:05.317Z,21.90
